sensor_id;sensor_type;location;lat;lon;timestamp;temperature;humidity
41469;DHT22;27206;47.032;15.484;2023-06-14T00:00:41;15.40;99.90
41469;DHT22;27206;47.032;15.484;2023-06-14T00:03:07;15.30;99.90
41469;DHT22;27206;47.032;15.484;2023-06-14T00:05:38;15.30;99.90
41469;DHT22;27206;47.032;15.484;2023-06-14T00:08:07;15.40;99.90
41469;DHT22;27206;47.032;15.484;2023-06-14T00:10:34;15.50;99.90
41469;DHT22;27206;47.032;15.484;2023-06-14T00:13:01;15.60;99.90
41469;DHT22;27206;47.032;15.484;2023-06-14T00:15:27;15.50;99.90
41469;DHT22;27206;47.032;15.484;2023-06-14T00:17:53;15.50;99.90
41469;DHT22;27206;47.032;15.484;2023-06-14T00:20:20;15.40;99.90
41469;DHT22;27206;47.032;15.484;2023-06-14T00:22:46;15.40;99.90
41469;DHT22;27206;47.032;15.484;2023-06-14T00:25:13;15.50;99.90
41469;DHT22;27206;47.032;15.484;2023-06-14T00:27:39;15.50;99.90
41469;DHT22;27206;47.032;15.484;2023-06-14T00:30:05;15.50;99.90
41469;DHT22;27206;47.032;15.484;2023-06-14T00:32:31;15.50;99.90
41469;DHT22;27206;47.032;15.484;2023-06-14T00:34:56;15.50;99.90
41469;DHT22;27206;47.032;15.484;2023-06-14T00:37:22;15.40;99.90
41469;DHT22;27206;47.032;15.484;2023-06-14T00:39:47;15.30;99.90
41469;DHT22;27206;47.032;15.484;2023-06-14T00:42:26;15.30;1.00
41469;DHT22;27206;47.032;15.484;2023-06-14T00:44:52;15.20;99.90
41469;DHT22;27206;47.032;15.484;2023-06-14T00:47:18;15.20;1.00
41469;DHT22;27206;47.032;15.484;2023-06-14T00:49:54;15.20;1.00
41469;DHT22;27206;47.032;15.484;2023-06-14T00:52:21;15.20;1.00
41469;DHT22;27206;47.032;15.484;2023-06-14T00:54:47;15.20;1.00
41469;DHT22;27206;47.032;15.484;2023-06-14T00:57:13;15.10;1.00
41469;DHT22;27206;47.032;15.484;2023-06-14T00:59:48;15.20;1.00
41469;DHT22;27206;47.032;15.484;2023-06-14T01:02:15;15.10;1.00
41469;DHT22;27206;47.032;15.484;2023-06-14T01:04:41;14.90;1.00
41469;DHT22;27206;47.032;15.484;2023-06-14T01:10:08;14.90;1.00
41469;DHT22;27206;47.032;15.484;2023-06-14T01:15:04;14.80;1.00
41469;DHT22;27206;47.032;15.484;2023-06-14T01:17:30;14.90;1.00
41469;DHT22;27206;47.032;15.484;2023-06-14T01:20:06;14.80;1.00
41469;DHT22;27206;47.032;15.484;2023-06-14T01:22:35;14.80;1.00
41469;DHT22;27206;47.032;15.484;2023-06-14T01:25:01;14.80;1.00
41469;DHT22;27206;47.032;15.484;2023-06-14T01:27:27;14.80;1.00
41469;DHT22;27206;47.032;15.484;2023-06-14T01:29:58;14.90;1.00
41469;DHT22;27206;47.032;15.484;2023-06-14T01:32:28;15.00;1.00
41469;DHT22;27206;47.032;15.484;2023-06-14T01:34:54;15.00;1.00
41469;DHT22;27206;47.032;15.484;2023-06-14T01:37:21;15.00;1.00
41469;DHT22;27206;47.032;15.484;2023-06-14T01:39:48;14.90;1.00
41469;DHT22;27206;47.032;15.484;2023-06-14T01:42:16;14.80;1.00
41469;DHT22;27206;47.032;15.484;2023-06-14T01:44:43;14.80;1.00
41469;DHT22;27206;47.032;15.484;2023-06-14T01:47:09;14.80;1.00
41469;DHT22;27206;47.032;15.484;2023-06-14T01:49:35;14.70;1.00
41469;DHT22;27206;47.032;15.484;2023-06-14T01:52:01;14.60;1.00
41469;DHT22;27206;47.032;15.484;2023-06-14T01:54:27;14.60;1.00
41469;DHT22;27206;47.032;15.484;2023-06-14T01:56:53;14.70;1.00
41469;DHT22;27206;47.032;15.484;2023-06-14T01:59:18;14.70;1.00
41469;DHT22;27206;47.032;15.484;2023-06-14T02:01:44;14.70;1.00
41469;DHT22;27206;47.032;15.484;2023-06-14T02:04:11;14.70;1.00
41469;DHT22;27206;47.032;15.484;2023-06-14T02:06:37;14.70;1.00
41469;DHT22;27206;47.032;15.484;2023-06-14T02:09:03;14.40;1.00
41469;DHT22;27206;47.032;15.484;2023-06-14T02:11:29;14.40;1.00
41469;DHT22;27206;47.032;15.484;2023-06-14T02:13:55;14.50;1.00
41469;DHT22;27206;47.032;15.484;2023-06-14T02:16:21;14.60;1.00
41469;DHT22;27206;47.032;15.484;2023-06-14T02:18:47;14.40;1.00
41469;DHT22;27206;47.032;15.484;2023-06-14T02:21:14;14.40;1.00
41469;DHT22;27206;47.032;15.484;2023-06-14T02:23:40;14.50;1.00
41469;DHT22;27206;47.032;15.484;2023-06-14T02:26:05;14.60;1.00
41469;DHT22;27206;47.032;15.484;2023-06-14T02:28:31;14.50;1.00
41469;DHT22;27206;47.032;15.484;2023-06-14T02:30:57;14.60;1.00
41469;DHT22;27206;47.032;15.484;2023-06-14T02:33:23;14.70;1.00
41469;DHT22;27206;47.032;15.484;2023-06-14T02:35:48;14.70;1.00
41469;DHT22;27206;47.032;15.484;2023-06-14T02:38:14;14.70;1.00
41469;DHT22;27206;47.032;15.484;2023-06-14T02:40:39;14.70;1.00
41469;DHT22;27206;47.032;15.484;2023-06-14T02:43:08;14.60;1.00
41469;DHT22;27206;47.032;15.484;2023-06-14T02:45:33;14.70;1.00
41469;DHT22;27206;47.032;15.484;2023-06-14T02:47:59;14.70;1.00
41469;DHT22;27206;47.032;15.484;2023-06-14T02:50:25;14.50;1.00
41469;DHT22;27206;47.032;15.484;2023-06-14T02:52:53;14.40;1.00
41469;DHT22;27206;47.032;15.484;2023-06-14T02:55:21;14.30;1.00
41469;DHT22;27206;47.032;15.484;2023-06-14T02:57:46;14.30;1.00
41469;DHT22;27206;47.032;15.484;2023-06-14T03:00:13;14.10;1.00
41469;DHT22;27206;47.032;15.484;2023-06-14T03:02:39;14.10;1.00
41469;DHT22;27206;47.032;15.484;2023-06-14T03:05:05;14.10;1.00
41469;DHT22;27206;47.032;15.484;2023-06-14T03:07:32;14.20;1.00
41469;DHT22;27206;47.032;15.484;2023-06-14T03:09:58;14.20;1.00
41469;DHT22;27206;47.032;15.484;2023-06-14T03:12:23;14.30;1.00
41469;DHT22;27206;47.032;15.484;2023-06-14T03:14:49;14.30;1.00
41469;DHT22;27206;47.032;15.484;2023-06-14T03:17:16;14.30;1.00
41469;DHT22;27206;47.032;15.484;2023-06-14T03:19:43;14.20;1.00
41469;DHT22;27206;47.032;15.484;2023-06-14T03:22:08;14.20;1.00
41469;DHT22;27206;47.032;15.484;2023-06-14T03:24:34;14.20;1.00
41469;DHT22;27206;47.032;15.484;2023-06-14T03:27:02;14.20;1.00
41469;DHT22;27206;47.032;15.484;2023-06-14T03:29:28;14.30;1.00
41469;DHT22;27206;47.032;15.484;2023-06-14T03:32:01;14.30;1.00
41469;DHT22;27206;47.032;15.484;2023-06-14T03:34:27;14.30;1.00
41469;DHT22;27206;47.032;15.484;2023-06-14T03:36:53;14.30;1.00
41469;DHT22;27206;47.032;15.484;2023-06-14T03:39:19;14.30;1.00
41469;DHT22;27206;47.032;15.484;2023-06-14T03:41:45;14.30;1.00
41469;DHT22;27206;47.032;15.484;2023-06-14T03:44:11;14.20;1.00
41469;DHT22;27206;47.032;15.484;2023-06-14T03:46:36;14.10;1.00
41469;DHT22;27206;47.032;15.484;2023-06-14T03:49:02;14.80;1.00
41469;DHT22;27206;47.032;15.484;2023-06-14T03:51:28;14.80;1.00
41469;DHT22;27206;47.032;15.484;2023-06-14T03:53:54;14.60;1.00
41469;DHT22;27206;47.032;15.484;2023-06-14T03:56:21;14.50;1.00
41469;DHT22;27206;47.032;15.484;2023-06-14T03:58:46;14.50;1.00
41469;DHT22;27206;47.032;15.484;2023-06-14T04:01:12;14.50;1.00
41469;DHT22;27206;47.032;15.484;2023-06-14T04:03:38;14.50;1.00
41469;DHT22;27206;47.032;15.484;2023-06-14T04:06:05;14.50;1.00
41469;DHT22;27206;47.032;15.484;2023-06-14T04:08:31;14.50;1.00
41469;DHT22;27206;47.032;15.484;2023-06-14T04:10:57;14.50;1.00
41469;DHT22;27206;47.032;15.484;2023-06-14T04:13:23;14.50;1.00
41469;DHT22;27206;47.032;15.484;2023-06-14T04:15:49;14.50;1.00
41469;DHT22;27206;47.032;15.484;2023-06-14T04:18:14;14.60;1.00
41469;DHT22;27206;47.032;15.484;2023-06-14T04:20:40;14.60;1.00
41469;DHT22;27206;47.032;15.484;2023-06-14T04:23:13;14.60;1.00
41469;DHT22;27206;47.032;15.484;2023-06-14T04:25:39;14.70;1.00
41469;DHT22;27206;47.032;15.484;2023-06-14T04:28:05;14.60;1.00
41469;DHT22;27206;47.032;15.484;2023-06-14T04:30:34;14.70;1.00
41469;DHT22;27206;47.032;15.484;2023-06-14T04:33:00;14.70;1.00
41469;DHT22;27206;47.032;15.484;2023-06-14T04:35:26;14.70;1.00
41469;DHT22;27206;47.032;15.484;2023-06-14T04:37:52;14.70;1.00
41469;DHT22;27206;47.032;15.484;2023-06-14T04:40:18;14.70;1.00
41469;DHT22;27206;47.032;15.484;2023-06-14T04:42:44;14.70;1.00
41469;DHT22;27206;47.032;15.484;2023-06-14T04:45:11;14.80;1.00
41469;DHT22;27206;47.032;15.484;2023-06-14T04:47:38;14.90;1.00
41469;DHT22;27206;47.032;15.484;2023-06-14T04:50:04;15.10;1.00
41469;DHT22;27206;47.032;15.484;2023-06-14T04:52:29;15.40;1.00
41469;DHT22;27206;47.032;15.484;2023-06-14T04:54:56;15.30;1.00
41469;DHT22;27206;47.032;15.484;2023-06-14T04:57:22;15.10;1.00
41469;DHT22;27206;47.032;15.484;2023-06-14T04:59:48;15.10;1.00
41469;DHT22;27206;47.032;15.484;2023-06-14T05:02:14;15.10;1.00
41469;DHT22;27206;47.032;15.484;2023-06-14T05:04:39;15.10;1.00
41469;DHT22;27206;47.032;15.484;2023-06-14T05:07:07;14.90;1.00
41469;DHT22;27206;47.032;15.484;2023-06-14T05:09:33;14.80;1.00
41469;DHT22;27206;47.032;15.484;2023-06-14T05:11:59;14.90;1.00
41469;DHT22;27206;47.032;15.484;2023-06-14T05:14:26;14.90;1.00
41469;DHT22;27206;47.032;15.484;2023-06-14T05:16:52;15.00;1.00
41469;DHT22;27206;47.032;15.484;2023-06-14T05:19:18;15.10;1.00
41469;DHT22;27206;47.032;15.484;2023-06-14T05:21:46;15.10;1.00
41469;DHT22;27206;47.032;15.484;2023-06-14T05:24:13;15.10;1.00
41469;DHT22;27206;47.032;15.484;2023-06-14T05:26:38;15.10;1.00
41469;DHT22;27206;47.032;15.484;2023-06-14T05:29:04;15.10;1.00
41469;DHT22;27206;47.032;15.484;2023-06-14T05:31:30;15.10;1.00
41469;DHT22;27206;47.032;15.484;2023-06-14T05:33:56;15.10;1.00
41469;DHT22;27206;47.032;15.484;2023-06-14T05:36:22;15.10;1.00
41469;DHT22;27206;47.032;15.484;2023-06-14T05:38:47;15.20;1.00
41469;DHT22;27206;47.032;15.484;2023-06-14T05:41:13;15.10;1.00
41469;DHT22;27206;47.032;15.484;2023-06-14T05:43:39;15.10;99.90
41469;DHT22;27206;47.032;15.484;2023-06-14T05:46:05;15.10;99.90
41469;DHT22;27206;47.032;15.484;2023-06-14T05:48:30;15.20;1.00
41469;DHT22;27206;47.032;15.484;2023-06-14T05:50:56;15.30;1.00
41469;DHT22;27206;47.032;15.484;2023-06-14T05:53:22;15.50;99.90
41469;DHT22;27206;47.032;15.484;2023-06-14T05:55:48;15.50;99.90
41469;DHT22;27206;47.032;15.484;2023-06-14T05:58:14;15.40;1.00
41469;DHT22;27206;47.032;15.484;2023-06-14T06:00:39;15.50;1.00
41469;DHT22;27206;47.032;15.484;2023-06-14T06:03:05;15.50;1.00
41469;DHT22;27206;47.032;15.484;2023-06-14T06:05:33;15.50;99.90
41469;DHT22;27206;47.032;15.484;2023-06-14T06:07:59;15.40;99.90
41469;DHT22;27206;47.032;15.484;2023-06-14T06:10:25;15.50;99.90
41469;DHT22;27206;47.032;15.484;2023-06-14T06:12:51;15.50;99.90
41469;DHT22;27206;47.032;15.484;2023-06-14T06:15:17;15.40;1.00
41469;DHT22;27206;47.032;15.484;2023-06-14T06:17:44;15.40;1.00
41469;DHT22;27206;47.032;15.484;2023-06-14T06:20:11;15.50;99.90
41469;DHT22;27206;47.032;15.484;2023-06-14T06:22:37;15.40;1.00
41469;DHT22;27206;47.032;15.484;2023-06-14T06:25:03;15.20;1.00
41469;DHT22;27206;47.032;15.484;2023-06-14T06:27:29;15.20;1.00
41469;DHT22;27206;47.032;15.484;2023-06-14T06:29:55;15.30;1.00
41469;DHT22;27206;47.032;15.484;2023-06-14T06:32:21;15.30;1.00
41469;DHT22;27206;47.032;15.484;2023-06-14T06:34:46;15.20;1.00
41469;DHT22;27206;47.032;15.484;2023-06-14T06:37:12;15.20;1.00
41469;DHT22;27206;47.032;15.484;2023-06-14T06:39:38;15.20;1.00
41469;DHT22;27206;47.032;15.484;2023-06-14T06:42:04;15.20;1.00
41469;DHT22;27206;47.032;15.484;2023-06-14T06:44:30;15.30;1.00
41469;DHT22;27206;47.032;15.484;2023-06-14T06:46:57;15.20;1.00
41469;DHT22;27206;47.032;15.484;2023-06-14T06:49:23;15.20;1.00
41469;DHT22;27206;47.032;15.484;2023-06-14T06:52:05;15.10;1.00
41469;DHT22;27206;47.032;15.484;2023-06-14T06:54:32;15.10;1.00
41469;DHT22;27206;47.032;15.484;2023-06-14T06:56:58;15.10;1.00
41469;DHT22;27206;47.032;15.484;2023-06-14T06:59:23;15.00;1.00
41469;DHT22;27206;47.032;15.484;2023-06-14T07:01:49;15.10;1.00
41469;DHT22;27206;47.032;15.484;2023-06-14T07:04:15;15.00;1.00
41469;DHT22;27206;47.032;15.484;2023-06-14T07:06:42;15.00;1.00
41469;DHT22;27206;47.032;15.484;2023-06-14T07:09:08;15.00;1.00
41469;DHT22;27206;47.032;15.484;2023-06-14T07:11:38;14.80;1.00
41469;DHT22;27206;47.032;15.484;2023-06-14T07:14:05;14.90;1.00
41469;DHT22;27206;47.032;15.484;2023-06-14T07:16:30;14.90;1.00
41469;DHT22;27206;47.032;15.484;2023-06-14T07:18:56;14.90;1.00
41469;DHT22;27206;47.032;15.484;2023-06-14T07:21:22;15.00;1.00
41469;DHT22;27206;47.032;15.484;2023-06-14T07:23:47;14.90;1.00
41469;DHT22;27206;47.032;15.484;2023-06-14T07:26:13;14.90;1.00
41469;DHT22;27206;47.032;15.484;2023-06-14T07:28:38;14.80;1.00
41469;DHT22;27206;47.032;15.484;2023-06-14T07:31:04;14.80;1.00
41469;DHT22;27206;47.032;15.484;2023-06-14T07:33:30;14.80;1.00
41469;DHT22;27206;47.032;15.484;2023-06-14T07:35:55;14.80;1.00
41469;DHT22;27206;47.032;15.484;2023-06-14T07:38:21;14.60;1.00
41469;DHT22;27206;47.032;15.484;2023-06-14T07:40:47;14.70;1.00
41469;DHT22;27206;47.032;15.484;2023-06-14T07:43:12;14.70;1.00
41469;DHT22;27206;47.032;15.484;2023-06-14T07:45:38;14.80;1.00
41469;DHT22;27206;47.032;15.484;2023-06-14T07:48:04;14.70;1.00
41469;DHT22;27206;47.032;15.484;2023-06-14T07:50:29;14.70;1.00
41469;DHT22;27206;47.032;15.484;2023-06-14T07:52:55;14.80;1.00
41469;DHT22;27206;47.032;15.484;2023-06-14T07:55:21;14.80;1.00
41469;DHT22;27206;47.032;15.484;2023-06-14T07:57:47;14.80;1.00
41469;DHT22;27206;47.032;15.484;2023-06-14T08:00:13;14.80;1.00
41469;DHT22;27206;47.032;15.484;2023-06-14T08:02:43;14.80;1.00
41469;DHT22;27206;47.032;15.484;2023-06-14T08:05:12;14.90;1.00
41469;DHT22;27206;47.032;15.484;2023-06-14T08:07:39;15.00;1.00
41469;DHT22;27206;47.032;15.484;2023-06-14T08:10:06;15.00;1.00
41469;DHT22;27206;47.032;15.484;2023-06-14T08:12:32;15.10;1.00
41469;DHT22;27206;47.032;15.484;2023-06-14T08:14:58;15.00;1.00
41469;DHT22;27206;47.032;15.484;2023-06-14T08:17:23;14.90;1.00
41469;DHT22;27206;47.032;15.484;2023-06-14T08:19:49;14.80;99.90
41469;DHT22;27206;47.032;15.484;2023-06-14T08:22:15;14.60;99.90
41469;DHT22;27206;47.032;15.484;2023-06-14T08:24:42;14.70;99.90
41469;DHT22;27206;47.032;15.484;2023-06-14T08:27:08;14.70;99.90
41469;DHT22;27206;47.032;15.484;2023-06-14T08:29:34;14.70;99.90
41469;DHT22;27206;47.032;15.484;2023-06-14T08:32:00;14.80;99.90
41469;DHT22;27206;47.032;15.484;2023-06-14T08:34:25;14.70;1.00
41469;DHT22;27206;47.032;15.484;2023-06-14T08:36:51;14.70;1.00
41469;DHT22;27206;47.032;15.484;2023-06-14T08:39:17;14.60;99.90
41469;DHT22;27206;47.032;15.484;2023-06-14T08:41:46;14.60;1.00
41469;DHT22;27206;47.032;15.484;2023-06-14T08:44:15;14.70;1.00
41469;DHT22;27206;47.032;15.484;2023-06-14T08:46:42;14.60;1.00
41469;DHT22;27206;47.032;15.484;2023-06-14T08:49:11;14.50;1.00
41469;DHT22;27206;47.032;15.484;2023-06-14T08:51:37;14.40;1.00
41469;DHT22;27206;47.032;15.484;2023-06-14T08:54:04;14.30;1.00
41469;DHT22;27206;47.032;15.484;2023-06-14T08:56:30;14.30;1.00
41469;DHT22;27206;47.032;15.484;2023-06-14T08:58:59;14.50;1.00
41469;DHT22;27206;47.032;15.484;2023-06-14T09:01:28;14.50;1.00
41469;DHT22;27206;47.032;15.484;2023-06-14T09:03:54;14.70;1.00
41469;DHT22;27206;47.032;15.484;2023-06-14T09:06:23;14.90;1.00
41469;DHT22;27206;47.032;15.484;2023-06-14T09:08:50;15.50;1.00
41469;DHT22;27206;47.032;15.484;2023-06-14T09:11:18;15.60;99.90
41469;DHT22;27206;47.032;15.484;2023-06-14T09:13:49;16.40;99.90
41469;DHT22;27206;47.032;15.484;2023-06-14T09:16:15;16.20;99.90
41469;DHT22;27206;47.032;15.484;2023-06-14T09:18:45;16.30;99.90
41469;DHT22;27206;47.032;15.484;2023-06-14T09:21:14;16.30;99.90
41469;DHT22;27206;47.032;15.484;2023-06-14T09:23:42;16.90;99.90
41469;DHT22;27206;47.032;15.484;2023-06-14T09:26:09;16.70;99.90
41469;DHT22;27206;47.032;15.484;2023-06-14T09:28:36;16.30;99.90
41469;DHT22;27206;47.032;15.484;2023-06-14T09:31:02;16.50;99.90
41469;DHT22;27206;47.032;15.484;2023-06-14T09:33:27;16.50;99.90
41469;DHT22;27206;47.032;15.484;2023-06-14T09:35:56;16.80;99.90
41469;DHT22;27206;47.032;15.484;2023-06-14T09:38:22;16.80;99.90
41469;DHT22;27206;47.032;15.484;2023-06-14T09:40:49;17.00;99.90
41469;DHT22;27206;47.032;15.484;2023-06-14T09:43:15;17.30;99.90
41469;DHT22;27206;47.032;15.484;2023-06-14T09:45:41;16.60;99.90
41469;DHT22;27206;47.032;15.484;2023-06-14T09:48:11;16.20;1.00
41469;DHT22;27206;47.032;15.484;2023-06-14T09:50:38;16.20;1.00
41469;DHT22;27206;47.032;15.484;2023-06-14T09:53:10;16.00;1.00
41469;DHT22;27206;47.032;15.484;2023-06-14T09:55:37;16.10;1.00
41469;DHT22;27206;47.032;15.484;2023-06-14T09:58:05;16.20;1.00
41469;DHT22;27206;47.032;15.484;2023-06-14T10:00:32;16.20;1.00
41469;DHT22;27206;47.032;15.484;2023-06-14T10:03:11;16.10;99.90
41469;DHT22;27206;47.032;15.484;2023-06-14T10:05:38;15.80;1.00
41469;DHT22;27206;47.032;15.484;2023-06-14T10:08:08;15.80;1.00
41469;DHT22;27206;47.032;15.484;2023-06-14T10:10:34;15.90;1.00
41469;DHT22;27206;47.032;15.484;2023-06-14T10:13:00;16.20;1.00
41469;DHT22;27206;47.032;15.484;2023-06-14T10:15:44;16.40;1.00
41469;DHT22;27206;47.032;15.484;2023-06-14T10:18:38;16.80;1.00
41469;DHT22;27206;47.032;15.484;2023-06-14T10:23:45;16.60;1.00
41469;DHT22;27206;47.032;15.484;2023-06-14T10:26:22;17.10;1.00
41469;DHT22;27206;47.032;15.484;2023-06-14T10:29:00;18.00;99.90
41469;DHT22;27206;47.032;15.484;2023-06-14T10:31:48;18.50;99.90
41469;DHT22;27206;47.032;15.484;2023-06-14T10:34:24;18.90;99.90
41469;DHT22;27206;47.032;15.484;2023-06-14T10:37:11;19.20;99.90
41469;DHT22;27206;47.032;15.484;2023-06-14T10:39:42;18.70;99.90
41469;DHT22;27206;47.032;15.484;2023-06-14T10:42:08;18.90;99.90
41469;DHT22;27206;47.032;15.484;2023-06-14T10:44:45;19.70;99.90
41469;DHT22;27206;47.032;15.484;2023-06-14T10:49:53;19.30;99.90
41469;DHT22;27206;47.032;15.484;2023-06-14T10:52:26;19.70;99.90
41469;DHT22;27206;47.032;15.484;2023-06-14T10:57:30;19.90;99.90
41469;DHT22;27206;47.032;15.484;2023-06-14T10:59:58;19.50;99.90
41469;DHT22;27206;47.032;15.484;2023-06-14T11:05:25;20.30;99.90
41469;DHT22;27206;47.032;15.484;2023-06-14T11:08:35;20.60;99.90
41469;DHT22;27206;47.032;15.484;2023-06-14T11:11:08;20.80;99.90
41469;DHT22;27206;47.032;15.484;2023-06-14T11:13:37;21.20;99.90
41469;DHT22;27206;47.032;15.484;2023-06-14T11:16:13;21.10;99.90
41469;DHT22;27206;47.032;15.484;2023-06-14T11:18:40;21.30;99.90
41469;DHT22;27206;47.032;15.484;2023-06-14T11:21:06;20.70;99.90
41469;DHT22;27206;47.032;15.484;2023-06-14T11:23:32;20.60;99.90
41469;DHT22;27206;47.032;15.484;2023-06-14T11:25:57;20.50;99.90
41469;DHT22;27206;47.032;15.484;2023-06-14T11:28:23;20.60;99.90
41469;DHT22;27206;47.032;15.484;2023-06-14T11:30:59;20.00;99.90
41469;DHT22;27206;47.032;15.484;2023-06-14T11:33:25;19.20;99.90
41469;DHT22;27206;47.032;15.484;2023-06-14T11:35:51;19.70;99.90
41469;DHT22;27206;47.032;15.484;2023-06-14T11:38:17;19.50;99.90
41469;DHT22;27206;47.032;15.484;2023-06-14T11:40:43;20.00;99.90
41469;DHT22;27206;47.032;15.484;2023-06-14T11:43:08;19.90;99.90
41469;DHT22;27206;47.032;15.484;2023-06-14T11:45:34;20.50;99.90
41469;DHT22;27206;47.032;15.484;2023-06-14T11:48:00;20.70;99.90
41469;DHT22;27206;47.032;15.484;2023-06-14T11:50:27;19.90;99.90
41469;DHT22;27206;47.032;15.484;2023-06-14T11:52:57;19.50;99.90
41469;DHT22;27206;47.032;15.484;2023-06-14T11:55:23;19.80;99.90
41469;DHT22;27206;47.032;15.484;2023-06-14T11:57:49;20.50;99.90
41469;DHT22;27206;47.032;15.484;2023-06-14T12:00:16;20.00;99.90
41469;DHT22;27206;47.032;15.484;2023-06-14T12:02:43;19.40;99.90
41469;DHT22;27206;47.032;15.484;2023-06-14T12:05:09;19.80;99.90
41469;DHT22;27206;47.032;15.484;2023-06-14T12:07:39;19.90;99.90
41469;DHT22;27206;47.032;15.484;2023-06-14T12:10:08;20.00;99.90
41469;DHT22;27206;47.032;15.484;2023-06-14T12:12:37;20.10;99.90
41469;DHT22;27206;47.032;15.484;2023-06-14T12:15:05;20.20;99.90
41469;DHT22;27206;47.032;15.484;2023-06-14T12:17:35;20.20;99.90
41469;DHT22;27206;47.032;15.484;2023-06-14T12:20:12;20.30;99.90
41469;DHT22;27206;47.032;15.484;2023-06-14T12:22:59;20.80;99.90
41469;DHT22;27206;47.032;15.484;2023-06-14T12:25:36;20.80;99.90
41469;DHT22;27206;47.032;15.484;2023-06-14T12:28:06;20.10;99.90
41469;DHT22;27206;47.032;15.484;2023-06-14T12:30:33;20.10;99.90
41469;DHT22;27206;47.032;15.484;2023-06-14T12:32:59;20.40;99.90
41469;DHT22;27206;47.032;15.484;2023-06-14T12:35:27;20.30;99.90
41469;DHT22;27206;47.032;15.484;2023-06-14T12:37:52;20.40;99.90
41469;DHT22;27206;47.032;15.484;2023-06-14T12:40:18;20.50;99.90
41469;DHT22;27206;47.032;15.484;2023-06-14T12:42:44;20.60;99.90
41469;DHT22;27206;47.032;15.484;2023-06-14T12:45:12;20.70;99.90
41469;DHT22;27206;47.032;15.484;2023-06-14T12:47:38;20.60;99.90
41469;DHT22;27206;47.032;15.484;2023-06-14T12:50:05;20.30;99.90
41469;DHT22;27206;47.032;15.484;2023-06-14T12:52:31;19.80;99.90
41469;DHT22;27206;47.032;15.484;2023-06-14T12:54:56;19.70;99.90
41469;DHT22;27206;47.032;15.484;2023-06-14T12:57:23;20.20;99.90
41469;DHT22;27206;47.032;15.484;2023-06-14T12:59:49;20.10;99.90
41469;DHT22;27206;47.032;15.484;2023-06-14T13:02:19;20.00;99.90
41469;DHT22;27206;47.032;15.484;2023-06-14T13:04:47;20.10;99.90
41469;DHT22;27206;47.032;15.484;2023-06-14T13:07:13;20.30;99.90
41469;DHT22;27206;47.032;15.484;2023-06-14T13:09:40;20.30;99.90
41469;DHT22;27206;47.032;15.484;2023-06-14T13:12:07;20.40;99.90
41469;DHT22;27206;47.032;15.484;2023-06-14T13:14:33;19.90;99.90
41469;DHT22;27206;47.032;15.484;2023-06-14T13:16:58;19.50;99.90
41469;DHT22;27206;47.032;15.484;2023-06-14T13:19:24;19.70;99.90
41469;DHT22;27206;47.032;15.484;2023-06-14T13:21:50;19.90;99.90
41469;DHT22;27206;47.032;15.484;2023-06-14T13:24:16;20.00;99.90
41469;DHT22;27206;47.032;15.484;2023-06-14T13:26:42;19.90;99.90
41469;DHT22;27206;47.032;15.484;2023-06-14T13:29:07;19.70;99.90
41469;DHT22;27206;47.032;15.484;2023-06-14T13:31:33;19.90;99.90
41469;DHT22;27206;47.032;15.484;2023-06-14T13:33:58;20.00;99.90
41469;DHT22;27206;47.032;15.484;2023-06-14T13:36:24;19.90;99.90
41469;DHT22;27206;47.032;15.484;2023-06-14T13:38:50;20.00;99.90
41469;DHT22;27206;47.032;15.484;2023-06-14T13:41:17;19.80;99.90
41469;DHT22;27206;47.032;15.484;2023-06-14T13:43:43;20.10;99.90
41469;DHT22;27206;47.032;15.484;2023-06-14T13:46:09;20.10;99.90
41469;DHT22;27206;47.032;15.484;2023-06-14T13:48:34;20.10;99.90
41469;DHT22;27206;47.032;15.484;2023-06-14T13:51:00;20.70;99.90
41469;DHT22;27206;47.032;15.484;2023-06-14T13:53:26;21.20;99.90
41469;DHT22;27206;47.032;15.484;2023-06-14T13:55:52;20.60;99.90
41469;DHT22;27206;47.032;15.484;2023-06-14T13:58:18;20.00;99.90
41469;DHT22;27206;47.032;15.484;2023-06-14T14:00:44;19.90;99.90
41469;DHT22;27206;47.032;15.484;2023-06-14T14:03:10;20.10;99.90
41469;DHT22;27206;47.032;15.484;2023-06-14T14:05:36;20.20;99.90
41469;DHT22;27206;47.032;15.484;2023-06-14T14:08:03;20.90;99.90
41469;DHT22;27206;47.032;15.484;2023-06-14T14:10:29;20.60;99.90
41469;DHT22;27206;47.032;15.484;2023-06-14T14:12:55;20.00;99.90
41469;DHT22;27206;47.032;15.484;2023-06-14T14:15:22;20.30;99.90
41469;DHT22;27206;47.032;15.484;2023-06-14T14:17:47;20.30;99.90
41469;DHT22;27206;47.032;15.484;2023-06-14T14:20:13;20.00;99.90
41469;DHT22;27206;47.032;15.484;2023-06-14T14:22:41;20.10;99.90
41469;DHT22;27206;47.032;15.484;2023-06-14T14:25:08;20.30;99.90
41469;DHT22;27206;47.032;15.484;2023-06-14T14:27:34;20.90;99.90
41469;DHT22;27206;47.032;15.484;2023-06-14T14:29:59;22.10;99.90
41469;DHT22;27206;47.032;15.484;2023-06-14T14:32:25;21.60;99.90
41469;DHT22;27206;47.032;15.484;2023-06-14T14:34:51;21.70;99.90
41469;DHT22;27206;47.032;15.484;2023-06-14T14:37:16;21.20;99.90
41469;DHT22;27206;47.032;15.484;2023-06-14T14:39:44;21.70;99.90
41469;DHT22;27206;47.032;15.484;2023-06-14T14:42:10;21.80;99.90
41469;DHT22;27206;47.032;15.484;2023-06-14T14:44:37;21.70;99.90
41469;DHT22;27206;47.032;15.484;2023-06-14T14:47:03;21.70;99.90
41469;DHT22;27206;47.032;15.484;2023-06-14T14:49:29;21.60;99.90
41469;DHT22;27206;47.032;15.484;2023-06-14T14:51:55;21.10;99.90
41469;DHT22;27206;47.032;15.484;2023-06-14T14:54:22;21.00;99.90
41469;DHT22;27206;47.032;15.484;2023-06-14T14:56:48;21.60;99.90
41469;DHT22;27206;47.032;15.484;2023-06-14T14:59:14;21.70;99.90
41469;DHT22;27206;47.032;15.484;2023-06-14T15:01:39;21.60;99.90
41469;DHT22;27206;47.032;15.484;2023-06-14T15:04:05;21.50;99.90
41469;DHT22;27206;47.032;15.484;2023-06-14T15:06:31;21.50;99.90
41469;DHT22;27206;47.032;15.484;2023-06-14T15:08:57;21.30;99.90
41469;DHT22;27206;47.032;15.484;2023-06-14T15:11:22;21.30;99.90
41469;DHT22;27206;47.032;15.484;2023-06-14T15:13:48;21.50;99.90
41469;DHT22;27206;47.032;15.484;2023-06-14T15:16:14;21.80;99.90
41469;DHT22;27206;47.032;15.484;2023-06-14T15:18:40;21.90;99.90
41469;DHT22;27206;47.032;15.484;2023-06-14T15:21:06;21.80;99.90
41469;DHT22;27206;47.032;15.484;2023-06-14T15:23:31;21.90;99.90
41469;DHT22;27206;47.032;15.484;2023-06-14T15:25:57;21.40;99.90
41469;DHT22;27206;47.032;15.484;2023-06-14T15:28:24;20.90;99.90
41469;DHT22;27206;47.032;15.484;2023-06-14T15:30:53;20.70;99.90
41469;DHT22;27206;47.032;15.484;2023-06-14T15:33:19;20.50;99.90
41469;DHT22;27206;47.032;15.484;2023-06-14T15:35:46;21.00;99.90
41469;DHT22;27206;47.032;15.484;2023-06-14T15:38:12;21.40;99.90
41469;DHT22;27206;47.032;15.484;2023-06-14T15:40:37;21.40;99.90